sensor_id;sensor_type;location;lat;lon;timestamp;pressure;altitude;pressure_sealevel;temperature;humidity
62548;BME280;48602;45.192;5.722;2023-04-08T00:01:51;99386.06;;;7.93;61.63
62548;BME280;48602;45.192;5.722;2023-04-08T00:04:18;99384.31;;;7.94;61.83
62548;BME280;48602;45.192;5.722;2023-04-08T00:06:43;99384.34;;;7.92;62.77
62548;BME280;48602;45.192;5.722;2023-04-08T00:09:09;99386.97;;;7.92;62.94
62548;BME280;48602;45.192;5.722;2023-04-08T00:11:35;99381.75;;;7.91;62.97
62548;BME280;48602;45.192;5.722;2023-04-08T00:14:02;99381.13;;;7.81;63.44
62548;BME280;48602;45.192;5.722;2023-04-08T00:16:28;99381.34;;;7.72;63.82
62548;BME280;48602;45.192;5.722;2023-04-08T00:18:54;99379.81;;;7.63;63.65
62548;BME280;48602;45.192;5.722;2023-04-08T00:21:19;99376.44;;;7.58;63.91
62548;BME280;48602;45.192;5.722;2023-04-08T00:23:45;99380.88;;;7.55;63.99
62548;BME280;48602;45.192;5.722;2023-04-08T00:26:11;99377.50;;;7.51;64.11
62548;BME280;48602;45.192;5.722;2023-04-08T00:28:37;99374.91;;;7.50;64.18
62548;BME280;48602;45.192;5.722;2023-04-08T00:31:02;99381.94;;;7.48;64.17
62548;BME280;48602;45.192;5.722;2023-04-08T00:33:27;99377.63;;;7.45;64.25
62548;BME280;48602;45.192;5.722;2023-04-08T00:35:53;99384.63;;;7.45;64.02
62548;BME280;48602;45.192;5.722;2023-04-08T00:38:18;99378.59;;;7.41;64.67
62548;BME280;48602;45.192;5.722;2023-04-08T00:40:44;99382.13;;;7.39;63.81
62548;BME280;48602;45.192;5.722;2023-04-08T00:43:09;99383.09;;;7.36;64.93
62548;BME280;48602;45.192;5.722;2023-04-08T00:45:35;99380.59;;;7.30;65.41
62548;BME280;48602;45.192;5.722;2023-04-08T00:48:04;99378.97;;;7.24;65.60
62548;BME280;48602;45.192;5.722;2023-04-08T00:50:29;99385.22;;;7.19;65.49
62548;BME280;48602;45.192;5.722;2023-04-08T00:52:55;99386.22;;;7.13;65.57
62548;BME280;48602;45.192;5.722;2023-04-08T00:55:20;99383.72;;;7.07;65.38
62548;BME280;48602;45.192;5.722;2023-04-08T00:57:46;99379.41;;;7.05;65.29
62548;BME280;48602;45.192;5.722;2023-04-08T01:00:13;99382.09;;;7.03;64.83
62548;BME280;48602;45.192;5.722;2023-04-08T01:05:14;99382.84;;;7.07;65.17
62548;BME280;48602;45.192;5.722;2023-04-08T01:07:46;99382.00;;;7.06;65.69
62548;BME280;48602;45.192;5.722;2023-04-08T01:12:57;99385.38;;;7.11;66.46
62548;BME280;48602;45.192;5.722;2023-04-08T01:15:25;99388.88;;;7.12;66.43
62548;BME280;48602;45.192;5.722;2023-04-08T01:17:53;99394.91;;;7.15;66.38
62548;BME280;48602;45.192;5.722;2023-04-08T01:20:21;99394.03;;;7.16;66.21
62548;BME280;48602;45.192;5.722;2023-04-08T01:25:55;99401.03;;;7.16;66.07
62548;BME280;48602;45.192;5.722;2023-04-08T01:28:23;99403.72;;;7.13;66.00
62548;BME280;48602;45.192;5.722;2023-04-08T01:30:50;99399.41;;;7.09;66.25
62548;BME280;48602;45.192;5.722;2023-04-08T01:33:17;99408.31;;;7.03;65.90
62548;BME280;48602;45.192;5.722;2023-04-08T01:35:44;99411.03;;;6.97;66.48
62548;BME280;48602;45.192;5.722;2023-04-08T01:38:17;99412.88;;;6.92;65.98
62548;BME280;48602;45.192;5.722;2023-04-08T01:40:45;99407.69;;;6.89;65.74
62548;BME280;48602;45.192;5.722;2023-04-08T01:43:13;99410.31;;;6.89;65.79
62548;BME280;48602;45.192;5.722;2023-04-08T01:45:44;99409.44;;;6.90;65.98
62548;BME280;48602;45.192;5.722;2023-04-08T01:48:11;99413.81;;;6.89;66.77
62548;BME280;48602;45.192;5.722;2023-04-08T01:50:39;99406.03;;;6.86;66.88
62548;BME280;48602;45.192;5.722;2023-04-08T01:53:08;99409.56;;;6.84;66.87
62548;BME280;48602;45.192;5.722;2023-04-08T01:55:35;99402.63;;;6.81;66.69
62548;BME280;48602;45.192;5.722;2023-04-08T01:58:01;99411.41;;;6.79;66.47
62548;BME280;48602;45.192;5.722;2023-04-08T02:00:30;99402.75;;;6.75;66.21
62548;BME280;48602;45.192;5.722;2023-04-08T02:02:56;99401.94;;;6.72;67.49
62548;BME280;48602;45.192;5.722;2023-04-08T02:05:22;99397.69;;;6.68;66.97
62548;BME280;48602;45.192;5.722;2023-04-08T02:07:48;99403.84;;;6.65;67.46
62548;BME280;48602;45.192;5.722;2023-04-08T02:10:13;99405.66;;;6.61;67.76
62548;BME280;48602;45.192;5.722;2023-04-08T02:12:39;99407.41;;;6.61;67.89
62548;BME280;48602;45.192;5.722;2023-04-08T02:15:05;99405.66;;;6.61;68.18
62548;BME280;48602;45.192;5.722;2023-04-08T02:20:06;99405.56;;;6.66;67.81
62548;BME280;48602;45.192;5.722;2023-04-08T02:23:06;99406.41;;;6.68;68.06
62548;BME280;48602;45.192;5.722;2023-04-08T02:25:29;99402.88;;;6.69;68.52
62548;BME280;48602;45.192;5.722;2023-04-08T02:27:57;99396.75;;;6.70;68.65
62548;BME280;48602;45.192;5.722;2023-04-08T02:30:26;99401.03;;;6.73;68.34
62548;BME280;48602;45.192;5.722;2023-04-08T02:32:53;99412.34;;;6.76;68.34
62548;BME280;48602;45.192;5.722;2023-04-08T02:35:20;99405.31;;;6.78;68.36
62548;BME280;48602;45.192;5.722;2023-04-08T02:37:46;99411.41;;;6.79;69.51
62548;BME280;48602;45.192;5.722;2023-04-08T02:40:25;99415.91;;;6.72;69.12
62548;BME280;48602;45.192;5.722;2023-04-08T02:42:51;99409.03;;;6.68;69.34
62548;BME280;48602;45.192;5.722;2023-04-08T02:45:17;99407.38;;;6.62;69.29
62548;BME280;48602;45.192;5.722;2023-04-08T02:47:43;99413.59;;;6.55;69.19
62548;BME280;48602;45.192;5.722;2023-04-08T02:50:09;99412.84;;;6.50;68.72
62548;BME280;48602;45.192;5.722;2023-04-08T02:52:34;99418.13;;;6.49;68.52
62548;BME280;48602;45.192;5.722;2023-04-08T02:55:00;99420.75;;;6.47;68.66
62548;BME280;48602;45.192;5.722;2023-04-08T02:57:25;99413.81;;;6.45;68.87
62548;BME280;48602;45.192;5.722;2023-04-08T02:59:50;99412.06;;;6.45;69.12
62548;BME280;48602;45.192;5.722;2023-04-08T03:02:16;99419.06;;;6.45;68.89
62548;BME280;48602;45.192;5.722;2023-04-08T03:04:41;99424.31;;;6.45;69.46
62548;BME280;48602;45.192;5.722;2023-04-08T03:07:07;99424.31;;;6.45;69.64
62548;BME280;48602;45.192;5.722;2023-04-08T03:09:32;99420.81;;;6.44;69.73
62548;BME280;48602;45.192;5.722;2023-04-08T03:11:57;99424.31;;;6.45;69.89
62548;BME280;48602;45.192;5.722;2023-04-08T03:14:23;99420.75;;;6.47;69.99
62548;BME280;48602;45.192;5.722;2023-04-08T03:16:48;99426.00;;;6.47;70.25
62548;BME280;48602;45.192;5.722;2023-04-08T03:19:13;99420.78;;;6.46;70.33
62548;BME280;48602;45.192;5.722;2023-04-08T03:21:39;99421.69;;;6.45;70.81
62548;BME280;48602;45.192;5.722;2023-04-08T03:24:04;99429.56;;;6.43;70.95
62548;BME280;48602;45.192;5.722;2023-04-08T03:26:30;99424.34;;;6.42;70.93
62548;BME280;48602;45.192;5.722;2023-04-08T03:28:55;99429.56;;;6.43;71.07
62548;BME280;48602;45.192;5.722;2023-04-08T03:31:21;99430.41;;;6.45;70.81
62548;BME280;48602;45.192;5.722;2023-04-08T03:33:46;99442.59;;;6.46;71.08
62548;BME280;48602;45.192;5.722;2023-04-08T03:36:12;99439.13;;;6.46;70.71
62548;BME280;48602;45.192;5.722;2023-04-08T03:38:37;99440.88;;;6.45;70.55
62548;BME280;48602;45.192;5.722;2023-04-08T03:41:03;99441.75;;;6.46;70.69
62548;BME280;48602;45.192;5.722;2023-04-08T03:43:29;99437.41;;;6.45;70.28
62548;BME280;48602;45.192;5.722;2023-04-08T03:45:55;99444.38;;;6.44;70.39
62548;BME280;48602;45.192;5.722;2023-04-08T03:48:21;99435.63;;;6.45;70.26
62548;BME280;48602;45.192;5.722;2023-04-08T03:50:46;99433.03;;;6.44;69.97
62548;BME280;48602;45.192;5.722;2023-04-08T03:53:12;99441.75;;;6.44;70.26
62548;BME280;48602;45.192;5.722;2023-04-08T03:55:38;99443.53;;;6.44;70.40
62548;BME280;48602;45.192;5.722;2023-04-08T03:58:03;99434.84;;;6.40;69.92
62548;BME280;48602;45.192;5.722;2023-04-08T04:00:29;99438.34;;;6.39;70.30
62548;BME280;48602;45.192;5.722;2023-04-08T04:02:54;99435.75;;;6.38;69.98
62548;BME280;48602;45.192;5.722;2023-04-08T04:05:20;99435.75;;;6.38;70.07
62548;BME280;48602;45.192;5.722;2023-04-08T04:07:46;99442.75;;;6.37;70.27
62548;BME280;48602;45.192;5.722;2023-04-08T04:10:11;99445.44;;;6.36;70.05
62548;BME280;48602;45.192;5.722;2023-04-08T04:12:37;99452.41;;;6.35;70.36
62548;BME280;48602;45.192;5.722;2023-04-08T04:15:03;99448.97;;;6.33;70.21
62548;BME280;48602;45.192;5.722;2023-04-08T04:17:28;99456.81;;;6.33;70.34
62548;BME280;48602;45.192;5.722;2023-04-08T04:19:53;99449.88;;;6.30;70.03
62548;BME280;48602;45.192;5.722;2023-04-08T04:22:19;99454.25;;;6.30;70.15
62548;BME280;48602;45.192;5.722;2023-04-08T04:24:48;99454.25;;;6.30;70.30
62548;BME280;48602;45.192;5.722;2023-04-08T04:27:14;99456.88;;;6.28;70.37
62548;BME280;48602;45.192;5.722;2023-04-08T04:29:41;99452.53;;;6.27;70.31
62548;BME280;48602;45.192;5.722;2023-04-08T04:32:07;99452.53;;;6.27;70.33
62548;BME280;48602;45.192;5.722;2023-04-08T04:34:32;99456.91;;;6.27;70.15
62548;BME280;48602;45.192;5.722;2023-04-08T04:36:58;99459.56;;;6.25;69.98
62548;BME280;48602;45.192;5.722;2023-04-08T04:39:23;99458.75;;;6.22;70.33
62548;BME280;48602;45.192;5.722;2023-04-08T04:41:48;99454.44;;;6.19;70.50
62548;BME280;48602;45.192;5.722;2023-04-08T04:44:14;99461.47;;;6.16;70.39
62548;BME280;48602;45.192;5.722;2023-04-08T04:46:40;99459.78;;;6.12;70.48
62548;BME280;48602;45.192;5.722;2023-04-08T04:49:05;99465.94;;;6.09;70.75
62548;BME280;48602;45.192;5.722;2023-04-08T04:51:31;99471.19;;;6.08;70.88
62548;BME280;48602;45.192;5.722;2023-04-08T04:53:57;99469.44;;;6.08;70.66
62548;BME280;48602;45.192;5.722;2023-04-08T04:56:23;99477.31;;;6.07;70.65
62548;BME280;48602;45.192;5.722;2023-04-08T04:58:49;99479.94;;;6.07;70.55
62548;BME280;48602;45.192;5.722;2023-04-08T05:01:14;99471.25;;;6.05;70.49
62548;BME280;48602;45.192;5.722;2023-04-08T05:03:40;99474.75;;;6.04;69.99
62548;BME280;48602;45.192;5.722;2023-04-08T05:06:05;99471.31;;;6.02;70.46
62548;BME280;48602;45.192;5.722;2023-04-08T05:08:31;99480.91;;;6.01;70.79
62548;BME280;48602;45.192;5.722;2023-04-08T05:10:56;99477.44;;;6.01;70.76
62548;BME280;48602;45.192;5.722;2023-04-08T05:13:23;99487.03;;;6.02;70.64
62548;BME280;48602;45.192;5.722;2023-04-08T05:15:49;99482.69;;;5.99;70.64
62548;BME280;48602;45.192;5.722;2023-04-08T05:18:14;99488.78;;;6.00;70.74
62548;BME280;48602;45.192;5.722;2023-04-08T05:20:40;99487.03;;;6.02;70.97
62548;BME280;48602;45.192;5.722;2023-04-08T05:23:06;99494.91;;;6.00;71.41
62548;BME280;48602;45.192;5.722;2023-04-08T05:25:32;99498.38;;;6.01;71.38
62548;BME280;48602;45.192;5.722;2023-04-08T05:27:57;99492.28;;;6.00;71.04
62548;BME280;48602;45.192;5.722;2023-04-08T05:30:22;99500.16;;;5.99;71.54
62548;BME280;48602;45.192;5.722;2023-04-08T05:32:48;99495.78;;;5.99;71.31
62548;BME280;48602;45.192;5.722;2023-04-08T05:35:13;99502.75;;;6.00;71.32
62548;BME280;48602;45.192;5.722;2023-04-08T05:37:38;99514.00;;;6.04;70.96
62548;BME280;48602;45.192;5.722;2023-04-08T05:40:05;99507.94;;;6.03;71.62
62548;BME280;48602;45.192;5.722;2023-04-08T05:42:30;99512.22;;;6.06;71.40
62548;BME280;48602;45.192;5.722;2023-04-08T05:44:56;99518.31;;;6.08;71.67
62548;BME280;48602;45.192;5.722;2023-04-08T05:47:22;99520.03;;;6.10;71.11
62548;BME280;48602;45.192;5.722;2023-04-08T05:49:47;99518.25;;;6.12;70.94
62548;BME280;48602;45.192;5.722;2023-04-08T05:52:12;99521.72;;;6.14;71.16
62548;BME280;48602;45.192;5.722;2023-04-08T05:54:41;99519.91;;;6.18;70.62
62548;BME280;48602;45.192;5.722;2023-04-08T05:57:07;99526.00;;;6.20;70.86
62548;BME280;48602;45.192;5.722;2023-04-08T05:59:32;99525.88;;;6.26;70.71
62548;BME280;48602;45.192;5.722;2023-04-08T06:01:58;99531.03;;;6.30;70.85
62548;BME280;48602;45.192;5.722;2023-04-08T06:04:23;99534.47;;;6.36;70.83
62548;BME280;48602;45.192;5.722;2023-04-08T06:06:49;99525.63;;;6.41;70.74
62548;BME280;48602;45.192;5.722;2023-04-08T06:09:14;99537.75;;;6.47;70.50
62548;BME280;48602;45.192;5.722;2023-04-08T06:11:39;99529.81;;;6.51;70.62
62548;BME280;48602;45.192;5.722;2023-04-08T06:14:05;99532.31;;;6.57;70.56
62548;BME280;48602;45.192;5.722;2023-04-08T06:16:30;99534.84;;;6.63;70.40
62548;BME280;48602;45.192;5.722;2023-04-08T06:18:56;99539.13;;;6.69;70.17
62548;BME280;48602;45.192;5.722;2023-04-08T06:21:21;99535.53;;;6.73;70.17
62548;BME280;48602;45.192;5.722;2023-04-08T06:23:46;99537.22;;;6.77;69.75
62548;BME280;48602;45.192;5.722;2023-04-08T06:26:12;99541.47;;;6.84;70.08
62548;BME280;48602;45.192;5.722;2023-04-08T06:28:37;99537.81;;;6.91;70.04
62548;BME280;48602;45.192;5.722;2023-04-08T06:31:03;99540.34;;;6.97;69.36
62548;BME280;48602;45.192;5.722;2023-04-08T06:33:28;99541.03;;;7.06;69.50
62548;BME280;48602;45.192;5.722;2023-04-08T06:36:04;99541.75;;;7.15;69.17
62548;BME280;48602;45.192;5.722;2023-04-08T06:38:29;99538.91;;;7.26;69.02
62548;BME280;48602;45.192;5.722;2023-04-08T06:41:00;99537.88;;;7.34;68.84
62548;BME280;48602;45.192;5.722;2023-04-08T06:43:25;99542.06;;;7.42;68.82
62548;BME280;48602;45.192;5.722;2023-04-08T06:45:51;99535.84;;;7.47;68.36
62548;BME280;48602;45.192;5.722;2023-04-08T06:48:17;99547.09;;;7.54;68.42
62548;BME280;48602;45.192;5.722;2023-04-08T06:50:42;99551.31;;;7.59;67.97
62548;BME280;48602;45.192;5.722;2023-04-08T06:53:08;99550.34;;;7.63;67.96
62548;BME280;48602;45.192;5.722;2023-04-08T06:55:33;99535.41;;;7.67;67.89
62548;BME280;48602;45.192;5.722;2023-04-08T06:57:59;99544.00;;;7.74;67.71
62548;BME280;48602;45.192;5.722;2023-04-08T07:00:26;99545.66;;;7.78;67.42
62548;BME280;48602;45.192;5.722;2023-04-08T07:02:51;99550.75;;;7.85;67.53
62548;BME280;48602;45.192;5.722;2023-04-08T07:05:17;99552.41;;;7.89;67.20
62548;BME280;48602;45.192;5.722;2023-04-08T07:07:42;99544.44;;;7.94;67.45
62548;BME280;48602;45.192;5.722;2023-04-08T07:10:08;99549.59;;;7.98;66.94
62548;BME280;48602;45.192;5.722;2023-04-08T07:12:33;99556.50;;;8.02;67.00
62548;BME280;48602;45.192;5.722;2023-04-08T07:14:59;99553.75;;;8.07;67.09
62548;BME280;48602;45.192;5.722;2023-04-08T07:17:24;99560.59;;;8.14;66.83
62548;BME280;48602;45.192;5.722;2023-04-08T07:19:50;99554.28;;;8.21;66.55
62548;BME280;48602;45.192;5.722;2023-04-08T07:22:16;99565.44;;;8.31;66.39
62548;BME280;48602;45.192;5.722;2023-04-08T07:24:42;99556.69;;;8.33;66.42
62548;BME280;48602;45.192;5.722;2023-04-08T07:27:09;99558.34;;;8.37;66.20
62548;BME280;48602;45.192;5.722;2023-04-08T07:29:35;99559.13;;;8.39;66.14
62548;BME280;48602;45.192;5.722;2023-04-08T07:32:00;99560.81;;;8.42;65.70
62548;BME280;48602;45.192;5.722;2023-04-08T07:34:25;99561.56;;;8.49;65.75
62548;BME280;48602;45.192;5.722;2023-04-08T07:36:51;99555.28;;;8.54;65.60
62548;BME280;48602;45.192;5.722;2023-04-08T07:39:16;99560.38;;;8.60;65.68
62548;BME280;48602;45.192;5.722;2023-04-08T07:41:42;99559.41;;;8.64;65.24
62548;BME280;48602;45.192;5.722;2023-04-08T07:44:07;99561.06;;;8.68;65.12
62548;BME280;48602;45.192;5.722;2023-04-08T07:46:36;99553.88;;;8.75;65.10
62548;BME280;48602;45.192;5.722;2023-04-08T07:49:01;99558.94;;;8.83;64.50
62548;BME280;48602;45.192;5.722;2023-04-08T07:51:26;99558.75;;;8.89;64.42
62548;BME280;48602;45.192;5.722;2023-04-08T07:53:52;99569.94;;;8.97;64.16
62548;BME280;48602;45.192;5.722;2023-04-08T07:56:17;99567.22;;;9.01;63.85
62548;BME280;48602;45.192;5.722;2023-04-08T07:58:43;99564.44;;;9.06;63.68
62548;BME280;48602;45.192;5.722;2023-04-08T08:01:22;99568.63;;;9.13;63.60
62548;BME280;48602;45.192;5.722;2023-04-08T08:03:48;99564.94;;;9.20;63.26
62548;BME280;48602;45.192;5.722;2023-04-08T08:06:14;99566.53;;;9.26;63.28
62548;BME280;48602;45.192;5.722;2023-04-08T08:08:39;99567.28;;;9.31;62.55
62548;BME280;48602;45.192;5.722;2023-04-08T08:11:05;99575.78;;;9.39;63.11
62548;BME280;48602;45.192;5.722;2023-04-08T08:13:30;99571.22;;;9.45;62.66
62548;BME280;48602;45.192;5.722;2023-04-08T08:15:55;99568.44;;;9.52;62.36
62548;BME280;48602;45.192;5.722;2023-04-08T08:18:21;99577.91;;;9.57;62.33
62548;BME280;48602;45.192;5.722;2023-04-08T08:20:46;99572.53;;;9.62;61.86
62548;BME280;48602;45.192;5.722;2023-04-08T08:23:12;99570.66;;;9.65;62.10
62548;BME280;48602;45.192;5.722;2023-04-08T08:25:37;99567.00;;;9.71;61.87
62548;BME280;48602;45.192;5.722;2023-04-08T08:28:03;99570.31;;;9.77;61.85
62548;BME280;48602;45.192;5.722;2023-04-08T08:30:28;99570.94;;;9.86;61.85
62548;BME280;48602;45.192;5.722;2023-04-08T08:32:54;99568.09;;;9.92;61.63
62548;BME280;48602;45.192;5.722;2023-04-08T08:35:20;99573.25;;;9.96;61.33
62548;BME280;48602;45.192;5.722;2023-04-08T08:37:45;99574.88;;;10.00;61.36
62548;BME280;48602;45.192;5.722;2023-04-08T08:40:13;99578.22;;;10.05;61.29
62548;BME280;48602;45.192;5.722;2023-04-08T08:42:39;99571.81;;;10.14;61.04
62548;BME280;48602;45.192;5.722;2023-04-08T08:45:04;99569.94;;;10.19;60.51
62548;BME280;48602;45.192;5.722;2023-04-08T08:47:31;99581.97;;;10.28;60.29
62548;BME280;48602;45.192;5.722;2023-04-08T08:49:56;99573.88;;;10.34;59.97
62548;BME280;48602;45.192;5.722;2023-04-08T08:52:22;99579.88;;;10.39;59.32
62548;BME280;48602;45.192;5.722;2023-04-08T08:54:47;99573.56;;;10.43;59.34
62548;BME280;48602;45.192;5.722;2023-04-08T08:57:17;99574.34;;;10.46;58.95
62548;BME280;48602;45.192;5.722;2023-04-08T08:59:45;99575.19;;;10.47;58.87
62548;BME280;48602;45.192;5.722;2023-04-08T09:02:30;99574.06;;;10.56;59.09
62548;BME280;48602;45.192;5.722;2023-04-08T09:05:01;99566.69;;;10.65;58.96
62548;BME280;48602;45.192;5.722;2023-04-08T09:07:29;99574.41;;;10.71;58.73
62548;BME280;48602;45.192;5.722;2023-04-08T09:09:56;99568.94;;;10.76;58.25
62548;BME280;48602;45.192;5.722;2023-04-08T09:12:23;99567.13;;;10.78;57.91
62548;BME280;48602;45.192;5.722;2023-04-08T09:14:49;99563.53;;;10.80;58.12
62548;BME280;48602;45.192;5.722;2023-04-08T09:17:15;99568.75;;;10.82;57.57
62548;BME280;48602;45.192;5.722;2023-04-08T09:20:08;99565.00;;;10.89;57.51
62548;BME280;48602;45.192;5.722;2023-04-08T09:22:58;99566.50;;;10.96;57.38
62548;BME280;48602;45.192;5.722;2023-04-08T09:25:30;99565.50;;;11.00;56.18
62548;BME280;48602;45.192;5.722;2023-04-08T09:27:57;99567.06;;;11.06;56.27
62548;BME280;48602;45.192;5.722;2023-04-08T09:30:26;99564.94;;;11.15;55.94
62548;BME280;48602;45.192;5.722;2023-04-08T09:32:56;99563.81;;;11.23;56.04
62548;BME280;48602;45.192;5.722;2023-04-08T09:35:23;99558.31;;;11.29;55.05
62548;BME280;48602;45.192;5.722;2023-04-08T09:37:49;99554.72;;;11.31;54.99
62548;BME280;48602;45.192;5.722;2023-04-08T09:40:16;99553.69;;;11.35;54.96
62548;BME280;48602;45.192;5.722;2023-04-08T09:42:46;99554.50;;;11.37;54.71
62548;BME280;48602;45.192;5.722;2023-04-08T09:45:18;99558.91;;;11.37;53.41
62548;BME280;48602;45.192;5.722;2023-04-08T09:48:15;99548.47;;;11.34;54.61
62548;BME280;48602;45.192;5.722;2023-04-08T09:50:47;99550.34;;;11.30;54.72
62548;BME280;48602;45.192;5.722;2023-04-08T09:53:19;99549.59;;;11.27;54.59
62548;BME280;48602;45.192;5.722;2023-04-08T09:55:49;99548.66;;;11.28;54.72
62548;BME280;48602;45.192;5.722;2023-04-08T09:58:36;99545.00;;;11.32;54.97
62548;BME280;48602;45.192;5.722;2023-04-08T10:01:04;99548.31;;;11.38;54.84
62548;BME280;48602;45.192;5.722;2023-04-08T10:03:39;99540.06;;;11.46;54.69
62548;BME280;48602;45.192;5.722;2023-04-08T10:06:05;99543.53;;;11.48;53.48
62548;BME280;48602;45.192;5.722;2023-04-08T10:08:33;99543.75;;;11.42;54.37
62548;BME280;48602;45.192;5.722;2023-04-08T10:10:59;99547.50;;;11.36;54.31
62548;BME280;48602;45.192;5.722;2023-04-08T10:13:26;99540.53;;;11.34;54.33
62548;BME280;48602;45.192;5.722;2023-04-08T10:16:25;99538.66;;;11.37;54.19
62548;BME280;48602;45.192;5.722;2023-04-08T10:18:54;99545.66;;;11.38;54.58
62548;BME280;48602;45.192;5.722;2023-04-08T10:24:10;99534.97;;;11.41;54.54
62548;BME280;48602;45.192;5.722;2023-04-08T10:26:43;99534.84;;;11.44;54.90
62548;BME280;48602;45.192;5.722;2023-04-08T10:31:44;99532.59;;;11.57;54.07
62548;BME280;48602;45.192;5.722;2023-04-08T10:34:21;99519.13;;;11.65;54.36
62548;BME280;48602;45.192;5.722;2023-04-08T10:36:49;99520.53;;;11.73;53.85
62548;BME280;48602;45.192;5.722;2023-04-08T10:39:15;99530.00;;;11.80;53.49
62548;BME280;48602;45.192;5.722;2023-04-08T10:41:49;99518.22;;;11.89;53.93
62548;BME280;48602;45.192;5.722;2023-04-08T10:46:47;99526.81;;;11.94;53.09
62548;BME280;48602;45.192;5.722;2023-04-08T10:49:14;99509.06;;;11.98;53.64
62548;BME280;48602;45.192;5.722;2023-04-08T10:51:40;99529.84;;;12.07;51.05
62548;BME280;48602;45.192;5.722;2023-04-08T10:54:16;99518.16;;;12.12;52.59
62548;BME280;48602;45.192;5.722;2023-04-08T10:56:49;99505.50;;;12.20;52.68
62548;BME280;48602;45.192;5.722;2023-04-08T10:59:19;99500.88;;;12.26;52.55
62548;BME280;48602;45.192;5.722;2023-04-08T11:01:51;99499.66;;;12.34;52.86
62548;BME280;48602;45.192;5.722;2023-04-08T11:04:17;99509.84;;;12.43;52.34
62548;BME280;48602;45.192;5.722;2023-04-08T11:06:44;99502.78;;;12.44;53.08
62548;BME280;48602;45.192;5.722;2023-04-08T11:09:11;99493.78;;;12.48;53.08
62548;BME280;48602;45.192;5.722;2023-04-08T11:11:37;99492.47;;;12.58;53.39
62548;BME280;48602;45.192;5.722;2023-04-08T11:14:03;99493.75;;;12.70;51.92
62548;BME280;48602;45.192;5.722;2023-04-08T11:16:30;99489.09;;;12.75;52.17
62548;BME280;48602;45.192;5.722;2023-04-08T11:18:56;99490.63;;;12.80;52.35
62548;BME280;48602;45.192;5.722;2023-04-08T11:21:23;99485.09;;;12.86;51.81
62548;BME280;48602;45.192;5.722;2023-04-08T11:23:50;99486.66;;;12.90;50.48
62548;BME280;48602;45.192;5.722;2023-04-08T11:26:17;99484.69;;;12.96;49.97
62548;BME280;48602;45.192;5.722;2023-04-08T11:28:43;99482.69;;;13.01;51.08
62548;BME280;48602;45.192;5.722;2023-04-08T11:31:10;99478.69;;;13.11;51.14
62548;BME280;48602;45.192;5.722;2023-04-08T11:33:36;99474.03;;;13.17;50.63
62548;BME280;48602;45.192;5.722;2023-04-08T11:36:03;99464.09;;;13.22;50.86
62548;BME280;48602;45.192;5.722;2023-04-08T11:38:28;99469.91;;;13.31;51.80
62548;BME280;48602;45.192;5.722;2023-04-08T11:40:58;99466.06;;;13.38;50.66
62548;BME280;48602;45.192;5.722;2023-04-08T11:43:24;99473.00;;;13.40;49.90
62548;BME280;48602;45.192;5.722;2023-04-08T11:45:50;99451.81;;;13.40;49.87
62548;BME280;48602;45.192;5.722;2023-04-08T11:48:16;99468.41;;;13.44;48.64
62548;BME280;48602;45.192;5.722;2023-04-08T11:50:43;99450.66;;;13.46;49.33
62548;BME280;48602;45.192;5.722;2023-04-08T11:53:18;99448.78;;;13.48;49.50
62548;BME280;48602;45.192;5.722;2023-04-08T11:55:44;99438.72;;;13.56;49.31
62548;BME280;48602;45.192;5.722;2023-04-08T11:58:10;99430.31;;;13.65;49.59
62548;BME280;48602;45.192;5.722;2023-04-08T12:00:36;99437.75;;;13.76;48.40
62548;BME280;48602;45.192;5.722;2023-04-08T12:03:01;99432.09;;;13.83;47.94
62548;BME280;48602;45.192;5.722;2023-04-08T12:05:27;99432.09;;;13.83;47.83
62548;BME280;48602;45.192;5.722;2023-04-08T12:07:52;99426.78;;;13.83;48.01
62548;BME280;48602;45.192;5.722;2023-04-08T12:10:18;99424.72;;;13.90;47.63
62548;BME280;48602;45.192;5.722;2023-04-08T12:12:43;99416.44;;;13.96;47.78
62548;BME280;48602;45.192;5.722;2023-04-08T12:15:09;99413.50;;;14.02;47.42
62548;BME280;48602;45.192;5.722;2023-04-08T12:17:35;99416.69;;;14.09;47.76
62548;BME280;48602;45.192;5.722;2023-04-08T12:20:03;99415.47;;;14.16;47.18
62548;BME280;48602;45.192;5.722;2023-04-08T12:22:28;99415.09;;;14.23;46.27
62548;BME280;48602;45.192;5.722;2023-04-08T12:24:54;99400.63;;;14.29;46.69
62548;BME280;48602;45.192;5.722;2023-04-08T12:27:19;99408.44;;;14.32;46.70
62548;BME280;48602;45.192;5.722;2023-04-08T12:29:45;99399.31;;;14.38;46.24
62548;BME280;48602;45.192;5.722;2023-04-08T12:32:10;99411.50;;;14.42;46.83
62548;BME280;48602;45.192;5.722;2023-04-08T12:34:36;99407.84;;;14.44;46.32
62548;BME280;48602;45.192;5.722;2023-04-08T12:37:02;99400.66;;;14.46;45.89
62548;BME280;48602;45.192;5.722;2023-04-08T12:39:27;99395.13;;;14.51;46.08
62548;BME280;48602;45.192;5.722;2023-04-08T12:41:53;99415.09;;;14.58;45.84
62548;BME280;48602;45.192;5.722;2023-04-08T12:44:18;99398.94;;;14.62;45.27
62548;BME280;48602;45.192;5.722;2023-04-08T12:46:44;99389.03;;;14.66;45.43
62548;BME280;48602;45.192;5.722;2023-04-08T12:49:10;99396.75;;;14.71;45.56
62548;BME280;48602;45.192;5.722;2023-04-08T12:51:36;99389.16;;;14.80;45.36
62548;BME280;48602;45.192;5.722;2023-04-08T12:54:02;99387.28;;;14.82;44.77
62548;BME280;48602;45.192;5.722;2023-04-08T12:56:28;99385.94;;;14.91;45.33
62548;BME280;48602;45.192;5.722;2023-04-08T12:58:54;99400.22;;;14.88;45.25
62548;BME280;48602;45.192;5.722;2023-04-08T13:01:20;99386.03;;;14.89;45.50
62548;BME280;48602;45.192;5.722;2023-04-08T13:03:46;99382.25;;;14.93;45.07
62548;BME280;48602;45.192;5.722;2023-04-08T13:06:12;99358.81;;;15.01;44.74
62548;BME280;48602;45.192;5.722;2023-04-08T13:08:37;99365.59;;;15.07;45.02
62548;BME280;48602;45.192;5.722;2023-04-08T13:11:03;99377.81;;;15.10;44.91
62548;BME280;48602;45.192;5.722;2023-04-08T13:13:28;99361.81;;;15.11;45.27
62548;BME280;48602;45.192;5.722;2023-04-08T13:15:54;99363.44;;;15.14;45.16
62548;BME280;48602;45.192;5.722;2023-04-08T13:18:20;99379.91;;;15.20;44.07
62548;BME280;48602;45.192;5.722;2023-04-08T13:20:46;99357.63;;;15.23;44.81
62548;BME280;48602;45.192;5.722;2023-04-08T13:23:11;99350.25;;;15.28;43.91
62548;BME280;48602;45.192;5.722;2023-04-08T13:25:39;99350.00;;;15.32;44.60